Bluetown, Texas
Current Conditions -  °F | °C
As of 7:35 PM on Monday 20 Oct 2014 (Local Time) from KT65 Reporting Station
Scattered Clouds Scattered Clouds  
Wind Chill: 77°   Ceiling: Unl
Heat Index: 79°   Visibility: 10mi
Dew Point: 68°   Wind: 9mph
Humidity: 74%   Direction: 40°NE
Pressure: 29.92"   Gusts: NA
Location:  26.0737°N, 97.8225°W
Report Text: KT65 210035Z AUTO 04008KT 10SM SCT100 25/20 A2992 RMK AO2 T02500201
Loading
Personal Weather Stations






























Interactive Weather Map
Tropical Storm Tracking
New forecast layout! Learn more

10-Day Weather Forecast

Advertisements
Track Severe Weather on mobile